createdAt,value
2018-04-27T00:00:37.700Z,100293
2018-04-27T00:03:03.804Z,100293
2018-04-27T00:05:29.879Z,100284
2018-04-27T00:07:56.703Z,100297
2018-04-27T00:10:22.786Z,100288
2018-04-27T00:12:48.865Z,100284
2018-04-27T00:15:15.673Z,100270
2018-04-27T00:17:41.777Z,100274
2018-04-27T00:20:07.841Z,100263
2018-04-27T00:22:34.676Z,100266
2018-04-27T00:25:00.755Z,100276
2018-04-27T00:27:26.845Z,100273
2018-04-27T00:29:52.920Z,100273
2018-04-27T00:32:19.008Z,100255
2018-04-27T00:34:45.828Z,100270
2018-04-27T00:37:11.908Z,100264
2018-04-27T00:39:37.971Z,100264
2018-04-27T00:42:04.045Z,100259
2018-04-27T00:44:30.123Z,100265
2018-04-27T00:46:56.211Z,100263
2018-04-27T00:49:22.288Z,100265
2018-04-27T00:51:48.360Z,100263
2018-04-27T00:54:14.445Z,100265
2018-04-27T00:56:41.259Z,100265
2018-04-27T00:59:07.351Z,100260
2018-04-27T01:01:33.428Z,100261
2018-04-27T01:03:59.508Z,100261
2018-04-27T01:06:25.593Z,100261
2018-04-27T01:08:52.420Z,100269
2018-04-27T01:11:19.981Z,100261
2018-04-27T01:13:46.068Z,100269
2018-04-27T01:16:12.140Z,100265
2018-04-27T01:18:38.207Z,100267
2018-04-27T01:21:04.267Z,100260
2018-04-27T01:23:30.338Z,100260
2018-04-27T01:25:56.409Z,100259
2018-04-27T01:28:22.476Z,100264
2018-04-27T01:30:49.300Z,100261
2018-04-27T01:33:15.367Z,100266
2018-04-27T01:35:41.451Z,100257
2018-04-27T01:38:07.516Z,100254
2018-04-27T01:40:33.592Z,100253
2018-04-27T01:43:00.413Z,100252
2018-04-27T01:45:26.493Z,100254
2018-04-27T01:47:53.308Z,100252
2018-04-27T01:50:19.384Z,100254
2018-04-27T01:52:45.460Z,100243
2018-04-27T01:55:11.540Z,100251
2018-04-27T01:57:37.624Z,100248
2018-04-27T02:00:04.432Z,100246
2018-04-27T02:02:30.512Z,100259
2018-04-27T02:04:56.593Z,100250
2018-04-27T02:07:22.670Z,100248
2018-04-27T02:09:48.742Z,100255
2018-04-27T02:12:14.818Z,100258
2018-04-27T02:14:40.905Z,100248
2018-04-27T02:17:06.983Z,100250
2018-04-27T02:19:33.056Z,100250
2018-04-27T02:21:59.140Z,100237
2018-04-27T02:24:25.217Z,100229
2018-04-27T02:26:52.044Z,100239
2018-04-27T02:29:18.117Z,100239
2018-04-27T02:31:44.184Z,100236
2018-04-27T02:34:10.265Z,100223
2018-04-27T02:36:36.344Z,100227
2018-04-27T02:39:02.421Z,100229
2018-04-27T02:41:28.492Z,100240
2018-04-27T02:43:54.583Z,100237
2018-04-27T02:46:20.667Z,100230
2018-04-27T02:48:47.496Z,100231
2018-04-27T02:51:14.320Z,100226
2018-04-27T02:53:40.412Z,100227
2018-04-27T02:56:06.516Z,100236
2018-04-27T02:58:32.611Z,100236
2018-04-27T03:00:58.692Z,100230
2018-04-27T03:03:24.784Z,100231
2018-04-27T03:05:51.624Z,100229
2018-04-27T03:08:18.452Z,100232
2018-04-27T03:10:44.544Z,100237
2018-04-27T03:13:10.632Z,100241
2018-04-27T03:15:36.732Z,100230
2018-04-27T03:18:02.815Z,100220
2018-04-27T03:20:28.907Z,100232
2018-04-27T03:22:54.987Z,100221
2018-04-27T03:25:21.084Z,100228
2018-04-27T03:27:47.172Z,100227
2018-04-27T03:30:14.008Z,100217
2018-04-27T03:32:40.832Z,100215
2018-04-27T03:35:06.923Z,100210
2018-04-27T03:37:33.016Z,100214
2018-04-27T03:39:59.120Z,100216
2018-04-27T03:42:25.952Z,100223
2018-04-27T03:44:52.067Z,100232
2018-04-27T03:47:18.152Z,100225
2018-04-27T03:49:44.248Z,100220
2018-04-27T03:52:11.096Z,100222
2018-04-27T03:54:37.188Z,100213
2018-04-27T03:57:03.285Z,100212
2018-04-27T03:59:48.163Z,100220
2018-04-27T04:02:32.940Z,100212
2018-04-27T04:05:17.604Z,100200
2018-04-27T04:07:43.696Z,100208
2018-04-27T04:10:09.785Z,100214
2018-04-27T04:12:36.616Z,100208
2018-04-27T04:15:02.692Z,100203
2018-04-27T04:17:28.783Z,100206
2018-04-27T04:19:55.603Z,100210
2018-04-27T04:22:21.688Z,100211
2018-04-27T04:24:47.776Z,100209
2018-04-27T04:27:13.867Z,100210
2018-04-27T04:29:39.950Z,100211
2018-04-27T04:32:06.064Z,100199
2018-04-27T04:34:32.140Z,100214
2018-04-27T04:36:58.228Z,100216
2018-04-27T04:39:24.314Z,100225
2018-04-27T04:41:51.153Z,100221
2018-04-27T04:44:17.248Z,100221
2018-04-27T04:46:44.084Z,100220
2018-04-27T04:49:10.179Z,100233
2018-04-27T04:51:36.264Z,100240
2018-04-27T04:54:02.348Z,100234
2018-04-27T04:56:28.428Z,100234
2018-04-27T04:58:55.249Z,100229
2018-04-27T05:01:21.329Z,100228
2018-04-27T05:03:47.420Z,100248
2018-04-27T05:06:14.240Z,100241
2018-04-27T05:08:40.324Z,100248
2018-04-27T05:11:06.413Z,100240
2018-04-27T05:13:32.479Z,100234
2018-04-27T05:15:58.568Z,100241
2018-04-27T05:21:32.200Z,100248
2018-04-27T05:23:59.015Z,100254
2018-04-27T05:26:25.084Z,100250
2018-04-27T05:28:51.152Z,100252
2018-04-27T05:31:23.184Z,100259
2018-04-27T05:33:49.272Z,100266
2018-04-27T05:36:16.096Z,100260
2018-04-27T05:38:42.164Z,100267
2018-04-27T05:41:08.229Z,100258
2018-04-27T05:43:34.292Z,100258
2018-04-27T05:46:01.112Z,100269
2018-04-27T05:48:27.167Z,100266
2018-04-27T05:50:53.973Z,100263
2018-04-27T05:53:20.044Z,100270
2018-04-27T05:55:46.128Z,100265
2018-04-27T05:58:12.216Z,100265
2018-04-27T06:00:38.324Z,100260
2018-04-27T06:03:04.415Z,100269
2018-04-27T06:05:31.979Z,100252
2018-04-27T06:07:58.071Z,100253
2018-04-27T06:10:24.143Z,100246
2018-04-27T06:12:50.981Z,100249
2018-04-27T06:15:17.792Z,100260
2018-04-27T06:17:43.888Z,100261
2018-04-27T06:20:09.988Z,100260
2018-04-27T06:22:36.075Z,100253
2018-04-27T06:25:02.157Z,100252
2018-04-27T06:27:28.258Z,100251
2018-04-27T06:29:54.341Z,100252
2018-04-27T06:32:20.452Z,100241
2018-04-27T06:34:46.552Z,100250
2018-04-27T06:37:12.641Z,100253
2018-04-27T06:39:38.732Z,100252
2018-04-27T06:42:04.801Z,100248
2018-04-27T06:44:31.628Z,100259
2018-04-27T06:46:57.713Z,100239
2018-04-27T06:49:23.804Z,100244
2018-04-27T06:51:50.621Z,100241
2018-04-27T06:54:16.725Z,100232
2018-04-27T06:56:42.803Z,100235
2018-04-27T06:59:08.949Z,100227
2018-04-27T07:01:35.724Z,100234
2018-04-27T07:04:01.801Z,100232
2018-04-27T07:06:27.889Z,100229
2018-04-27T07:08:53.965Z,100231
2018-04-27T07:11:20.039Z,100222
2018-04-27T07:13:46.155Z,100222
2018-04-27T07:16:12.980Z,100231
2018-04-27T07:18:39.068Z,100231
2018-04-27T07:21:05.173Z,100232
2018-04-27T07:23:32.000Z,100218
2018-04-27T07:25:58.147Z,100225
2018-04-27T07:28:24.196Z,100227
2018-04-27T07:30:50.284Z,100220
2018-04-27T07:33:16.380Z,100225
2018-04-27T07:35:42.480Z,100224
2018-04-27T07:38:08.556Z,100226
2018-04-27T07:40:34.640Z,100224
2018-04-27T07:43:00.719Z,100228
2018-04-27T07:45:27.552Z,100227
2018-04-27T07:47:53.636Z,100234
2018-04-27T07:50:19.738Z,100236
2018-04-27T07:52:45.824Z,100235
2018-04-27T07:55:11.921Z,100237
2018-04-27T07:57:51.689Z,100238
2018-04-27T08:00:17.767Z,100236
2018-04-27T08:02:43.837Z,100242
2018-04-27T08:05:09.900Z,100231
2018-04-27T08:07:35.972Z,100233
2018-04-27T08:10:02.043Z,100231
2018-04-27T08:12:28.853Z,100235
2018-04-27T08:14:54.920Z,100226
2018-04-27T08:17:20.996Z,100219
2018-04-27T08:19:47.056Z,100221
2018-04-27T08:22:13.870Z,100225
2018-04-27T08:24:39.937Z,100220
2018-04-27T08:27:06.012Z,100220
2018-04-27T08:29:32.080Z,100223
2018-04-27T08:31:58.888Z,100225
2018-04-27T08:34:24.944Z,100217
2018-04-27T08:36:51.761Z,100217
2018-04-27T08:39:17.840Z,100217
2018-04-27T08:41:43.914Z,100221
2018-04-27T08:44:09.993Z,100211
2018-04-27T08:46:36.074Z,100208
2018-04-27T08:49:02.157Z,100202
2018-04-27T08:51:28.220Z,100208
2018-04-27T08:53:54.299Z,100206
2018-04-27T08:56:20.375Z,100204
2018-04-27T08:58:46.456Z,100206
2018-04-27T09:01:12.548Z,100198
2018-04-27T09:03:39.380Z,100200
2018-04-27T09:06:06.192Z,100203
2018-04-27T09:08:32.289Z,100194
2018-04-27T09:10:58.374Z,100195
2018-04-27T09:13:24.460Z,100201
2018-04-27T09:15:50.542Z,100191
2018-04-27T09:18:16.624Z,100195
2018-04-27T09:20:42.709Z,100194
2018-04-27T09:23:08.789Z,100201
2018-04-27T09:25:34.879Z,100188
2018-04-27T09:28:00.960Z,100186
2018-04-27T09:30:27.787Z,100178
2018-04-27T09:32:53.868Z,100179
2018-04-27T09:35:19.956Z,100166
2018-04-27T09:37:46.048Z,100171
2018-04-27T09:40:12.124Z,100165
2018-04-27T09:42:38.197Z,100168
2018-04-27T09:45:04.282Z,100165
2018-04-27T09:47:30.362Z,100161
2018-04-27T09:49:56.460Z,100154
2018-04-27T09:52:22.552Z,100147
2018-04-27T09:54:48.640Z,100148
2018-04-27T09:57:15.472Z,100140
2018-04-27T09:59:41.567Z,100136
2018-04-27T10:02:07.672Z,100130
2018-04-27T10:04:33.744Z,100125
2018-04-27T10:06:59.827Z,100132
2018-04-27T10:09:25.920Z,100125
2018-04-27T10:11:52.752Z,100122
2018-04-27T10:14:19.568Z,100112
2018-04-27T10:16:45.665Z,100107
2018-04-27T10:19:11.753Z,100115
2018-04-27T10:21:38.583Z,100114
2018-04-27T10:24:04.669Z,100099
2018-04-27T10:26:30.766Z,100098
2018-04-27T10:28:56.848Z,100089
2018-04-27T10:31:24.424Z,100074
2018-04-27T10:33:50.515Z,100055
2018-04-27T10:36:16.588Z,100044
2018-04-27T10:38:43.428Z,100045
2018-04-27T10:41:09.512Z,100043
2018-04-27T10:43:35.594Z,100044
2018-04-27T10:46:01.665Z,100035
2018-04-27T10:48:27.727Z,100052
2018-04-27T10:50:54.536Z,100054
2018-04-27T10:53:20.604Z,100042
2018-04-27T10:55:46.696Z,100039
2018-04-27T10:58:12.776Z,100040
2018-04-27T11:00:38.858Z,100020
2018-04-27T11:03:04.928Z,100016
2018-04-27T11:05:31.003Z,100016
2018-04-27T11:07:57.076Z,100026
2018-04-27T11:10:23.160Z,100012
2018-04-27T11:12:49.248Z,99998
2018-04-27T11:15:15.324Z,99999
2018-04-27T11:17:42.161Z,99994
2018-04-27T11:20:08.997Z,99992
2018-04-27T11:22:35.808Z,99986
2018-04-27T11:25:16.796Z,99981
2018-04-27T11:27:42.868Z,99984
2018-04-27T11:30:08.960Z,99978
2018-04-27T11:32:35.036Z,99982
2018-04-27T11:35:01.129Z,99988
2018-04-27T11:37:27.943Z,99984
2018-04-27T11:39:54.033Z,99971
2018-04-27T11:42:20.115Z,99966
2018-04-27T11:44:46.972Z,99962
2018-04-27T11:47:13.792Z,99957
2018-04-27T11:49:39.871Z,99956
2018-04-27T11:52:05.963Z,99965
2018-04-27T11:54:32.777Z,99963
2018-04-27T11:57:17.225Z,99962
2018-04-27T12:00:05.718Z,99958
2018-04-27T12:02:49.316Z,99948
2018-04-27T12:05:23.799Z,99940
2018-04-27T12:07:53.355Z,99939
2018-04-27T12:10:25.208Z,99942
2018-04-27T12:12:51.280Z,99937
2018-04-27T12:15:17.344Z,99930
2018-04-27T12:17:43.431Z,99928
2018-04-27T12:20:09.511Z,99933
2018-04-27T12:22:36.684Z,99937
2018-04-27T12:25:03.513Z,99922
2018-04-27T12:27:29.590Z,99927
2018-04-27T12:29:55.667Z,99936
2018-04-27T12:32:33.920Z,99936
2018-04-27T12:35:00.044Z,99939
2018-04-27T12:37:26.227Z,99927
2018-04-27T12:39:52.285Z,99939
2018-04-27T12:42:18.347Z,99928
2018-04-27T12:44:44.411Z,99926
2018-04-27T12:47:10.485Z,99915
2018-04-27T12:49:36.541Z,99918
2018-04-27T12:52:02.606Z,99910
2018-04-27T12:54:28.676Z,99914
2018-04-27T12:56:54.728Z,99909
2018-04-27T12:59:20.806Z,99911
2018-04-27T13:01:46.883Z,99917
2018-04-27T13:04:13.692Z,99906
2018-04-27T13:10:04.485Z,99903
2018-04-27T13:12:30.579Z,99902
2018-04-27T13:14:57.389Z,99895
2018-04-27T13:17:23.457Z,99894
2018-04-27T13:19:50.260Z,99883
2018-04-27T13:22:16.346Z,99890
2018-04-27T13:24:42.422Z,99885
2018-04-27T13:27:08.498Z,99873
2018-04-27T13:29:34.590Z,99878
2018-04-27T13:32:01.424Z,99878
2018-04-27T13:34:27.514Z,99875
2018-04-27T13:36:53.679Z,99873
2018-04-27T13:39:19.760Z,99869
2018-04-27T13:41:45.828Z,99863
2018-04-27T13:44:11.933Z,99852
2018-04-27T13:46:38.000Z,99864
2018-04-27T13:49:04.065Z,99857
2018-04-27T13:51:30.146Z,99855
2018-04-27T13:53:56.960Z,99854
2018-04-27T13:56:23.051Z,99854
2018-04-27T13:58:49.127Z,99842
2018-04-27T14:01:15.967Z,99852
2018-04-27T14:03:42.793Z,99847
2018-04-27T14:06:08.877Z,99836
2018-04-27T14:08:34.944Z,99839
2018-04-27T14:11:01.030Z,99827
2018-04-27T14:13:27.099Z,99809
2018-04-27T14:15:53.929Z,99810
2018-04-27T14:18:19.994Z,99803
2018-04-27T14:20:46.808Z,99794
2018-04-27T14:23:12.897Z,99792
2018-04-27T14:25:38.999Z,99788
2018-04-27T14:28:05.088Z,99784
2018-04-27T14:30:31.189Z,99777
2018-04-27T14:32:57.283Z,99779
2018-04-27T14:35:23.373Z,99787
2018-04-27T14:37:50.214Z,99777
2018-04-27T14:40:16.301Z,99766
2018-04-27T14:42:42.389Z,99769
2018-04-27T14:45:08.476Z,99758
2018-04-27T14:47:34.573Z,99763
2018-04-27T14:50:00.660Z,99757
2018-04-27T14:52:27.528Z,99763
2018-04-27T14:54:53.588Z,99770
2018-04-27T14:57:19.677Z,99754
2018-04-27T14:59:45.756Z,99749
2018-04-27T15:02:11.821Z,99756
2018-04-27T15:04:37.913Z,99754
2018-04-27T15:07:04.724Z,99766
2018-04-27T15:09:30.832Z,99762
2018-04-27T15:11:56.912Z,99752
2018-04-27T15:14:23.727Z,99751
2018-04-27T15:16:49.820Z,99753
2018-04-27T15:19:16.231Z,99747
2018-04-27T15:21:42.324Z,99754
2018-04-27T15:24:08.435Z,99743
2018-04-27T15:26:34.501Z,99746
2018-04-27T15:29:00.588Z,99739
2018-04-27T15:31:26.677Z,99724
2018-04-27T15:33:52.765Z,99728
2018-04-27T15:36:19.583Z,99740
2018-04-27T15:38:46.417Z,99732
2018-04-27T15:41:12.492Z,99728
2018-04-27T15:43:38.597Z,99734
2018-04-27T15:46:05.416Z,99731
2018-04-27T15:48:31.497Z,99729
2018-04-27T15:50:57.591Z,99717
2018-04-27T15:53:24.411Z,99707
2018-04-27T15:55:50.512Z,99719
2018-04-27T15:58:16.596Z,99703
2018-04-27T16:00:43.421Z,99702
2018-04-27T16:03:10.240Z,99697
2018-04-27T16:05:36.332Z,99698
2018-04-27T16:08:02.411Z,99710
2018-04-27T16:10:28.509Z,99704
2018-04-27T16:12:54.579Z,99700
2018-04-27T16:15:21.419Z,99695
2018-04-27T16:17:48.236Z,99690
2018-04-27T16:20:14.340Z,99683
2018-04-27T16:22:40.412Z,99673
2018-04-27T16:25:07.220Z,99663
2018-04-27T16:27:33.308Z,99676
2018-04-27T16:29:59.383Z,99667
2018-04-27T16:32:25.461Z,99666
2018-04-27T16:34:51.535Z,99663
2018-04-27T16:37:17.619Z,99664
2018-04-27T16:39:43.691Z,99648
2018-04-27T16:42:09.786Z,99645
2018-04-27T16:44:36.608Z,99626
2018-04-27T16:47:02.700Z,99622
2018-04-27T16:49:29.528Z,99606
2018-04-27T16:51:55.617Z,99615
2018-04-27T16:54:21.700Z,99614
2018-04-27T16:56:48.519Z,99620
2018-04-27T16:59:14.587Z,99631
2018-04-27T17:01:40.676Z,99629
2018-04-27T17:04:06.737Z,99634
2018-04-27T17:06:32.813Z,99635
2018-04-27T17:08:58.880Z,99626
2018-04-27T17:11:24.940Z,99634
2018-04-27T17:13:51.012Z,99622
2018-04-27T17:16:17.812Z,99624
2018-04-27T17:18:43.880Z,99621
2018-04-27T17:21:10.691Z,99618
2018-04-27T17:23:36.764Z,99617
2018-04-27T17:26:02.828Z,99606
2018-04-27T17:28:28.886Z,99601
2018-04-27T17:30:54.943Z,99616
2018-04-27T17:33:21.036Z,99596
2018-04-27T17:35:47.859Z,99598
2018-04-27T17:38:14.651Z,99597
2018-04-27T17:40:40.717Z,99597
2018-04-27T17:43:06.783Z,99603
2018-04-27T17:45:33.588Z,99596
2018-04-27T17:47:59.651Z,99609
2018-04-27T17:50:26.472Z,99612
2018-04-27T17:52:52.548Z,99603
2018-04-27T17:55:18.628Z,99596
2018-04-27T17:57:44.696Z,99596
2018-04-27T18:00:10.764Z,99597
2018-04-27T18:02:36.836Z,99603
2018-04-27T18:05:02.912Z,99610
2018-04-27T18:07:29.019Z,99606
2018-04-27T18:09:55.100Z,99604
2018-04-27T18:12:21.916Z,99601
2018-04-27T18:14:47.980Z,99596
2018-04-27T18:17:14.056Z,99604
2018-04-27T18:19:40.127Z,99605
2018-04-27T18:22:12.828Z,99603
2018-04-27T18:24:38.904Z,99594
2018-04-27T18:27:04.972Z,99599
2018-04-27T18:29:31.032Z,99582
2018-04-27T18:31:57.112Z,99586
2018-04-27T18:34:23.184Z,99584
2018-04-27T18:36:49.239Z,99577
2018-04-27T18:39:16.124Z,99574
2018-04-27T18:41:42.132Z,99579
2018-04-27T18:44:08.207Z,99587
2018-04-27T18:46:34.264Z,99583
2018-04-27T18:49:01.069Z,99585
2018-04-27T18:51:27.217Z,99583
2018-04-27T18:53:53.209Z,99589
2018-04-27T18:56:20.156Z,99586
2018-04-27T18:58:47.160Z,99589
2018-04-27T19:01:14.282Z,99591
2018-04-27T19:03:41.153Z,99590
2018-04-27T19:06:07.209Z,99594
2018-04-27T19:08:33.267Z,99594
2018-04-27T19:10:59.336Z,99586
2018-04-27T19:13:25.396Z,99581
2018-04-27T19:15:51.459Z,99585
2018-04-27T19:18:18.264Z,99592
2018-04-27T19:20:44.328Z,99587
2018-04-27T19:23:12.035Z,99589
2018-04-27T19:25:39.036Z,99582
2018-04-27T19:28:05.829Z,99579
2018-04-27T19:30:31.909Z,99580
2018-04-27T19:32:58.712Z,99572
2018-04-27T19:35:24.788Z,99582
2018-04-27T19:37:50.854Z,99579
2018-04-27T19:40:16.912Z,99572
2018-04-27T19:42:43.737Z,99563
2018-04-27T19:45:09.806Z,99571
2018-04-27T19:47:35.887Z,99568
2018-04-27T19:50:01.961Z,99566
2018-04-27T19:52:28.028Z,99564
2018-04-27T19:54:54.109Z,99555
2018-04-27T19:57:20.184Z,99563
2018-04-27T19:59:46.317Z,99552
2018-04-27T20:02:12.400Z,99549
2018-04-27T20:04:38.459Z,99542
2018-04-27T20:07:04.532Z,99548
2018-04-27T20:09:30.589Z,99546
2018-04-27T20:11:57.400Z,99534
2018-04-27T20:14:30.375Z,99532
2018-04-27T20:16:59.299Z,99542
2018-04-27T20:19:25.286Z,99546
2018-04-27T20:21:52.089Z,99544
2018-04-27T20:24:18.189Z,99538
2018-04-27T20:26:44.225Z,99534
2018-04-27T20:29:27.620Z,99529
2018-04-27T20:31:53.680Z,99530
2018-04-27T20:34:19.749Z,99530
2018-04-27T20:36:46.548Z,99525
2018-04-27T20:39:12.615Z,99515
2018-04-27T20:41:39.416Z,99513
2018-04-27T20:44:05.488Z,99516
2018-04-27T20:46:32.301Z,99507
2018-04-27T20:48:58.363Z,99504
2018-04-27T20:51:25.172Z,99504
2018-04-27T20:53:56.264Z,99513
2018-04-27T20:56:25.252Z,99511
2018-04-27T20:58:51.333Z,99512
2018-04-27T21:01:17.403Z,99501
2018-04-27T21:03:43.503Z,99505
2018-04-27T21:06:10.324Z,99500
2018-04-27T21:08:36.388Z,99501
2018-04-27T21:11:03.212Z,99498
2018-04-27T21:13:30.033Z,99492
2018-04-27T21:15:56.110Z,99485
2018-04-27T21:18:27.115Z,99485
2018-04-27T21:20:53.948Z,99488
2018-04-27T21:23:20.033Z,99489
2018-04-27T21:25:46.122Z,99487
2018-04-27T21:28:12.940Z,99479
2018-04-27T21:30:39.029Z,99485
2018-04-27T21:33:05.928Z,99480
2018-04-27T21:35:35.808Z,99473
2018-04-27T21:41:21.537Z,99478
2018-04-27T21:43:47.614Z,99476
2018-04-27T21:46:28.772Z,99481
2018-04-27T21:49:16.704Z,99473
2018-04-27T21:51:55.352Z,99472
2018-04-27T21:54:49.029Z,99476
2018-04-27T21:57:16.142Z,99476
2018-04-27T22:03:01.145Z,99475
2018-04-27T22:06:06.004Z,99466
2018-04-27T22:08:39.247Z,99470
2018-04-27T22:11:06.287Z,99467
2018-04-27T22:13:39.420Z,99467
2018-04-27T22:16:18.787Z,99471
2018-04-27T22:18:44.860Z,99460
2018-04-27T22:21:11.660Z,99464
2018-04-27T22:24:06.961Z,99474
2018-04-27T22:26:53.516Z,99471
2018-04-27T22:29:25.776Z,99463
2018-04-27T22:31:51.851Z,99472
2018-04-27T22:34:23.029Z,99468
2018-04-27T22:40:07.032Z,99468
2018-04-27T22:42:46.741Z,99468
2018-04-27T22:45:16.663Z,99468
2018-04-27T22:47:42.794Z,99466
2018-04-27T22:53:09.352Z,99454
2018-04-27T22:55:35.441Z,99469
2018-04-27T22:58:34.958Z,99466
2018-04-27T23:04:08.466Z,99463
2018-04-27T23:06:48.958Z,99456
2018-04-27T23:09:15.045Z,99445
2018-04-27T23:11:52.363Z,99451
2018-04-27T23:14:27.622Z,99453
2018-04-27T23:16:53.723Z,99457
2018-04-27T23:19:33.225Z,99447
2018-04-27T23:25:19.833Z,99452
2018-04-27T23:27:46.672Z,99451
2018-04-27T23:30:20.321Z,99447
2018-04-27T23:32:46.415Z,99455
2018-04-27T23:35:12.506Z,99443
2018-04-27T23:37:38.606Z,99440
2018-04-27T23:40:04.693Z,99443
2018-04-27T23:42:30.789Z,99450
2018-04-27T23:44:56.869Z,99454
2018-04-27T23:47:22.961Z,99451
2018-04-27T23:49:49.791Z,99444
2018-04-27T23:52:16.625Z,99447
2018-04-27T23:54:42.723Z,99446
2018-04-27T23:57:08.833Z,99443
2018-04-27T23:59:35.861Z,99455
